Pagrindinis puslapis
METAR-TAF:

METAR-TAF

Oro uostai :

Londrina, Parana, Brazilija

platuma: 23-20S, ilguma: 051-08W, Aukštis: 569 m

Dabartinis oras

Ataskaita buvo paskelbta 25 minutes, ne 22:00 UTC
Vėjas 3 kt iš Šiaurės Rytų
Temperatūra 32°C
Drėgmė 24%
Slėgis 1014 hPa
Matomumas 10 km arba daugiau
nėra debesų žemiau 1500 m ir nėra kamuolinių lietaus debesų

METAR: SBLO 162200Z 05003KT CAVOK 32/09 Q1014

Laikas: 19:25 (22:25 UTC)

Prognozė

Ataskaita buvo paskelbta 6 valandos ir 25 minutes, ne 16:00 UTC
Prognozė galioja nuo 16 metu 18 UTC su 17 metu 06 UTC
Vėjas 5 kt iš Rytų
Matomumas 10 km arba daugiau
nėra debesų žemiau 1500 m ir nėra kamuolinių lietaus debesų
Tapsmas
nuo 16 metu 21 UTC su 16 metu 23 UTC
Vėjas kt iš Šiaurės

TAF: SBLO 161600Z 1618/1706 08005KT CAVOK TX35/1619Z TN25/1704Z BECMG 1621/1623 00000KT RMK PDU

Orai ataskaitas ir orų prognozės (METAR, TAF).

turimą stotys yra geltonos ir raudonos taškus žemėlapyje.

Perkelti pele per norėdami pamatyti stoties vardą.

Tada spustelėkite, norėdami matyti oro stebėjimo ir prognozės.

Norėdami pakeisti žemėlapį: spustelėkite ant žalios mygtukų su juodo kryžiaus žemyn,; žalią mygtuką su brūkšneliu, jei norite nutolinti; arba žalių rodyklių gretimoms žemėlapius.


METAR-TAF: